Time;durP1;ratioP1;P1;durP2;ratioP2;P2;SDS_P1;SDS_P2;PMS_P1;PMS_P2;Temp;Humidity;BMP_temperature;BMP_pressure;BME280_temperature;BME280_humidity;BME280_pressure;Samples;Min_cycle;Max_cycle;Signal;HPM_P1;HPM_P2
2023/12/04 00:00:07;;;;;;;18.47;11.97;;;-2.50;99.90;;;-141.84;92.81;20409.38;5014191;28;20229;-73
2023/12/04 00:02:35;;;;;;;17.70;12.00;;;-2.50;99.90;;;-141.84;93.07;20494.75;5013576;28;20763;-74
2023/12/04 00:05:04;;;;;;;20.30;12.50;;;-2.50;99.90;;;-141.84;93.69;21206.25;5014532;28;20231;-74
2023/12/04 00:07:32;;;;;;;19.60;11.07;;;-2.60;99.90;;;-141.84;94.56;22353.09;5015121;28;20214;-72
2023/12/04 00:10:02;;;;;;;15.57;10.90;;;-2.60;99.90;;;-141.84;94.70;23087.31;5013892;28;20297;-73
2023/12/04 00:12:30;;;;;;;17.03;11.53;;;-2.60;99.90;;;-141.84;92.63;20618.72;5015110;28;20230;-75
2023/12/04 00:14:58;;;;;;;18.77;11.13;;;-2.60;99.90;;;-141.84;90.18;18948.16;5015825;28;20235;-74
2023/12/04 00:17:27;;;;;;;17.33;10.90;;;-2.50;99.90;;;-141.84;89.80;18753.09;5007456;28;20223;-73
2023/12/04 00:19:55;;;;;;;17.50;11.67;;;-2.50;99.90;;;-141.84;91.90;19405.34;5008051;28;20218;-67
2023/12/04 00:22:24;;;;;;;20.80;12.00;;;-2.50;99.90;;;-141.84;93.59;21023.28;5009410;28;20234;-68
2023/12/04 00:24:52;;;;;;;17.00;11.30;;;-2.60;99.90;;;-141.84;92.86;20173.59;5011475;28;20234;-68
2023/12/04 00:27:26;;;;;;;18.97;11.83;;;-2.60;99.90;;;-141.84;92.89;20354.47;5005165;28;20231;-68
2023/12/04 00:29:54;;;;;;;16.93;11.43;;;-2.60;99.90;;;-141.84;91.56;19630.94;5011897;28;20241;-67
2023/12/04 00:32:23;;;;;;;17.67;11.50;;;-2.60;99.90;;;-141.84;92.57;19832.13;5011876;28;20321;-68
2023/12/04 00:34:51;;;;;;;18.00;11.53;;;-2.60;99.90;;;-141.84;94.17;21767.44;5011577;28;20216;-69
2023/12/04 00:37:19;;;;;;;18.13;11.57;;;-2.70;99.90;;;-141.84;94.01;21602.72;5002872;28;20213;-68
2023/12/04 00:39:48;;;;;;;19.27;12.30;;;-2.60;99.90;;;-141.84;91.30;19748.81;5014372;28;20865;-75
2023/12/04 00:42:16;;;;;;;20.33;11.80;;;-2.60;99.90;;;-141.84;91.37;19399.25;5012827;28;20222;-75
2023/12/04 00:44:45;;;;;;;18.67;11.77;;;-2.60;99.90;;;-141.84;93.40;20511.00;5010574;28;20234;-74
2023/12/04 00:47:14;;;;;;;18.07;11.70;;;-2.60;99.90;;;-141.84;95.18;23542.97;5014448;28;20266;-74
2023/12/04 00:49:42;;;;;;;21.13;12.47;;;-2.60;99.90;;;-141.84;92.97;21314.00;5014975;28;20234;-75
2023/12/04 00:52:10;;;;;;;20.33;12.67;;;-2.60;99.90;;;-141.84;91.48;19557.78;5015446;28;20209;-73
2023/12/04 00:54:41;;;;;;;17.80;12.03;;;-2.50;99.90;;;-141.84;89.66;18759.19;5015673;28;20226;-75
2023/12/04 00:57:10;;;;;;;18.27;12.33;;;-2.50;99.90;;;-141.84;90.59;19037.56;5013115;28;20223;-73
2023/12/04 00:59:38;;;;;;;18.90;12.27;;;-2.50;99.90;;;-141.84;91.31;19287.50;5013494;28;20226;-75
2023/12/04 01:02:08;;;;;;;20.77;12.40;;;-2.40;99.90;;;-141.84;91.64;19462.25;5012454;28;20222;-77
2023/12/04 01:04:36;;;;;;;20.60;12.57;;;-2.40;99.90;;;-141.84;92.27;19976.44;5015176;28;20203;-74
2023/12/04 01:07:04;;;;;;;18.20;12.00;;;-2.50;99.90;;;-141.84;91.55;19519.16;5011169;28;20642;-72
2023/12/04 01:09:35;;;;;;;19.90;12.10;;;-2.40;99.90;;;-141.84;91.99;19677.66;5011274;28;20601;-75
2023/12/04 01:12:04;;;;;;;20.40;12.50;;;-2.40;99.90;;;-141.84;92.14;19716.28;5010383;28;20230;-73
2023/12/04 01:14:33;;;;;;;20.40;12.60;;;-2.40;99.90;;;-141.84;92.98;20488.63;5010846;28;20254;-73
2023/12/04 01:17:01;;;;;;;20.17;13.27;;;-2.40;99.90;;;-141.84;93.41;21049.72;5010552;28;20309;-74
2023/12/04 01:19:30;;;;;;;19.83;12.87;;;-2.50;99.90;;;-141.84;94.07;21757.25;5010407;28;20289;-74
2023/12/04 01:21:58;;;;;;;17.70;12.10;;;-2.40;99.90;;;-141.84;95.01;23422.94;5010406;28;20234;-69
2023/12/04 01:24:27;;;;;;;20.50;12.70;;;-2.40;99.90;;;-141.84;94.33;22798.47;5010732;28;20223;-69
2023/12/04 01:26:56;;;;;;;19.93;12.53;;;-2.40;99.90;;;-141.84;92.55;20297.56;5010275;28;20611;-70
2023/12/04 01:29:24;;;;;;;19.73;12.60;;;-2.30;99.90;;;-141.84;92.26;20008.94;5010835;28;20667;-68
2023/12/04 01:31:52;;;;;;;19.87;12.60;;;-2.30;99.90;;;-141.84;91.51;19533.38;5010797;28;20207;-69
2023/12/04 01:34:20;;;;;;;20.13;12.80;;;-2.30;99.90;;;-141.84;92.60;20155.28;5023932;28;20259;-73
2023/12/04 01:36:50;;;;;;;21.77;12.60;;;-2.30;99.90;;;-141.84;93.46;21187.97;5011379;28;20250;-73
2023/12/04 01:39:18;;;;;;;21.67;13.33;;;-2.30;99.90;;;-141.84;90.62;19360.66;5012149;28;20222;-74
2023/12/04 01:41:46;;;;;;;18.80;12.63;;;-2.20;99.90;;;-141.84;89.37;18769.34;5011398;28;20783;-71
2023/12/04 01:44:15;;;;;;;19.70;13.10;;;-2.20;99.90;;;-141.84;89.65;18846.56;5009035;28;20234;-71
2023/12/04 01:46:43;;;;;;;20.33;12.60;;;-2.20;99.90;;;-141.84;89.46;18785.59;5003178;28;20210;-69
2023/12/04 01:49:12;;;;;;;19.47;13.17;;;-2.20;99.90;;;-141.84;89.88;18838.44;4994094;28;20305;-70
2023/12/04 01:51:40;;;;;;;19.50;12.70;;;-2.20;99.90;;;-141.84;89.61;18915.63;5008824;28;20289;-70
2023/12/04 01:54:10;;;;;;;20.73;13.10;;;-2.10;99.90;;;-141.84;88.13;18570.22;4998611;28;20318;-72
2023/12/04 01:56:39;;;;;;;18.63;11.97;;;-2.00;99.90;;;-141.84;89.23;18710.44;4989721;28;20266;-70
2023/12/04 01:59:07;;;;;;;19.50;12.30;;;-2.10;99.90;;;-141.84;88.78;18653.53;5000278;28;20242;-71
2023/12/04 02:01:37;;;;;;;20.73;13.57;;;-2.10;99.90;;;-141.84;88.87;18677.91;5009304;28;20286;-71
2023/12/04 02:04:06;;;;;;;20.13;12.27;;;-2.10;99.90;;;-141.84;89.33;18765.28;5007977;28;20512;-70
2023/12/04 02:06:35;;;;;;;19.10;12.33;;;-2.20;99.90;;;-141.84;89.61;18889.22;5008505;28;20227;-72
2023/12/04 02:09:06;;;;;;;16.83;11.40;;;-2.10;99.90;;;-141.84;90.03;18921.75;5008481;28;20226;-70
2023/12/04 02:11:36;;;;;;;19.77;12.23;;;-2.10;99.90;;;-141.84;89.25;18799.81;5008335;28;20230;-71
2023/12/04 02:14:05;;;;;;;17.97;11.70;;;-2.10;99.90;;;-141.84;89.49;18801.84;5008977;28;20222;-71
2023/12/04 02:16:39;;;;;;;16.27;11.23;;;-2.10;99.90;;;-141.84;89.07;18736.84;5009160;28;20343;-70
2023/12/04 02:19:09;;;;;;;19.00;12.50;;;-2.10;99.90;;;-141.84;86.58;18432.09;5008355;28;20574;-71
2023/12/04 02:21:37;;;;;;;18.23;11.83;;;-2.00;99.90;;;-141.84;86.80;18407.69;5008317;28;20639;-71
2023/12/04 02:24:07;;;;;;;18.27;12.03;;;-2.00;99.90;;;-141.84;86.37;18397.53;5007692;28;20234;-61
2023/12/04 02:26:44;;;;;;;17.20;11.00;;;-2.00;99.90;;;-141.84;86.89;18436.16;5007897;28;20237;-61
2023/12/04 02:29:24;;;;;;;17.07;11.57;;;-2.00;99.90;;;-141.84;86.98;18432.09;5007287;28;20313;-61
2023/12/04 02:31:56;;;;;;;17.97;11.33;;;-2.00;99.90;;;-141.84;86.46;18425.97;5006758;28;20198;-62
2023/12/04 02:34:26;;;;;;;15.90;10.13;;;-2.00;99.90;;;-141.84;86.42;18440.22;5007883;28;20544;-61
2023/12/04 02:36:55;;;;;;;16.37;11.00;;;-2.00;99.90;;;-141.84;87.61;18519.44;5006869;28;20227;-62
2023/12/04 02:39:25;;;;;;;17.20;11.03;;;-2.10;99.90;;;-141.84;86.30;18391.44;5007355;28;20362;-61
2023/12/04 02:41:53;;;;;;;15.80;10.93;;;-2.10;99.90;;;-141.84;86.80;18417.84;5007358;28;20296;-62
2023/12/04 02:44:21;;;;;;;15.27;10.23;;;-2.10;99.90;;;-141.84;86.46;18425.97;5020475;28;20230;-62
2023/12/04 02:46:49;;;;;;;14.77;10.40;;;-2.10;99.90;;;-141.84;85.74;18395.50;5009325;28;20640;-61
2023/12/04 02:49:17;;;;;;;14.27;9.90;;;-2.10;99.90;;;-141.84;85.50;18383.31;5010255;28;20301;-62
2023/12/04 02:51:46;;;;;;;14.60;9.63;;;-2.00;99.90;;;-141.84;85.70;18356.91;5009604;28;20226;-62
2023/12/04 02:54:14;;;;;;;16.67;10.80;;;-2.10;99.90;;;-141.84;85.00;18354.88;5009461;28;20231;-61
2023/12/04 02:56:43;;;;;;;16.10;10.60;;;-2.10;99.90;;;-141.84;85.16;18348.78;5009676;28;20313;-62
2023/12/04 02:59:11;;;;;;;14.40;9.53;;;-2.10;99.90;;;-141.84;86.16;18369.09;5009407;28;20250;-62
2023/12/04 03:01:40;;;;;;;16.17;9.70;;;-2.10;99.90;;;-141.84;85.55;18395.50;5009244;28;20289;-63
2023/12/04 03:04:08;;;;;;;13.67;9.77;;;-2.10;99.90;;;-141.84;86.01;18391.44;5010189;28;20210;-63
2023/12/04 03:06:36;;;;;;;17.30;10.43;;;-2.10;99.90;;;-141.84;85.68;18423.94;5011584;28;20227;-62
2023/12/04 03:09:04;;;;;;;15.43;10.23;;;-2.10;99.90;;;-141.84;85.95;18403.63;5009518;28;20293;-62
2023/12/04 03:11:33;;;;;;;13.97;9.73;;;-2.10;99.90;;;-141.84;85.01;18377.22;5009259;28;20230;-62
2023/12/04 03:14:02;;;;;;;15.23;10.13;;;-2.00;99.90;;;-141.84;85.26;18375.19;5010914;28;20246;-62
2023/12/04 03:16:30;;;;;;;14.67;9.80;;;-2.10;99.90;;;-141.84;85.85;18393.47;4991258;28;20208;-61
2023/12/04 03:18:59;;;;;;;15.00;9.47;;;-2.10;99.90;;;-141.84;85.61;18423.94;5009372;28;20752;-63
2023/12/04 03:21:28;;;;;;;14.87;9.60;;;-2.00;99.90;;;-141.84;82.68;18295.97;5010759;28;20230;-61
2023/12/04 03:23:56;;;;;;;14.90;9.73;;;-2.00;99.90;;;-141.84;81.66;18312.22;5009364;28;20288;-62
2023/12/04 03:26:25;;;;;;;14.83;9.60;;;-1.90;99.90;;;-141.84;83.18;18304.09;5009233;28;20326;-62
2023/12/04 03:28:53;;;;;;;14.43;9.57;;;-2.00;99.90;;;-141.84;82.60;18322.38;5009298;28;20207;-61
2023/12/04 03:31:24;;;;;;;13.53;9.60;;;-2.00;99.90;;;-141.84;82.51;18306.13;5009689;28;20207;-62
2023/12/04 03:33:52;;;;;;;13.90;9.87;;;-2.00;99.90;;;-141.84;83.68;18330.50;5009150;28;20240;-61
2023/12/04 03:36:21;;;;;;;14.23;9.67;;;-2.00;99.90;;;-141.84;83.28;18322.38;5010672;28;20771;-61
2023/12/04 03:38:49;;;;;;;13.77;9.30;;;-2.10;99.90;;;-141.84;82.52;18257.38;5015625;28;20862;-62
2023/12/04 03:41:17;;;;;;;16.13;8.97;;;-2.00;99.90;;;-141.84;83.59;18322.38;5020991;28;20222;-62
2023/12/04 03:43:46;;;;;;;14.93;10.00;;;-2.00;99.90;;;-141.84;83.75;18320.34;5022386;28;20728;-63
2023/12/04 03:46:14;;;;;;;13.53;9.43;;;-2.00;99.90;;;-141.84;82.34;18328.47;5026604;28;20245;-61
2023/12/04 03:48:43;;;;;;;15.70;10.10;;;-2.00;99.90;;;-141.84;81.22;18330.50;5028473;28;20219;-62
2023/12/04 03:51:12;;;;;;;14.43;9.43;;;-1.90;99.90;;;-141.84;80.83;18289.88;5010360;28;20277;-63
2023/12/04 03:53:40;;;;;;;13.43;9.07;;;-1.90;99.90;;;-141.84;80.40;18293.94;5014443;28;20757;-62
2023/12/04 03:56:11;;;;;;;13.87;9.80;;;-1.80;99.90;;;-141.84;81.94;18310.19;5022916;28;20258;-62
2023/12/04 03:58:39;;;;;;;14.23;9.37;;;-1.90;99.90;;;-141.84;83.23;18342.69;5019238;28;20624;-63
2023/12/04 04:01:08;;;;;;;13.60;9.00;;;-1.80;99.90;;;-141.84;84.14;18344.72;5022450;28;20313;-62
2023/12/04 04:03:36;;;;;;;12.30;8.23;;;-1.80;99.90;;;-141.84;84.51;18369.09;5015051;28;20314;-62
2023/12/04 04:06:07;;;;;;;12.00;8.93;;;-1.90;99.90;;;-141.84;83.63;18356.91;5022632;28;20226;-62
2023/12/04 04:08:35;;;;;;;13.53;9.00;;;-1.80;99.90;;;-141.84;83.26;18354.88;5019027;28;20338;-61
2023/12/04 04:11:04;;;;;;;13.27;8.70;;;-1.80;99.90;;;-141.84;83.02;18346.75;5017741;28;20222;-63
2023/12/04 04:13:32;;;;;;;14.77;9.87;;;-1.80;99.90;;;-141.84;82.54;18318.31;5012812;28;20312;-62
2023/12/04 04:16:00;;;;;;;15.00;9.63;;;-1.70;99.90;;;-141.84;83.20;18348.78;5027027;28;20226;-62
2023/12/04 04:18:28;;;;;;;13.50;8.93;;;-1.80;99.90;;;-141.84;82.64;18304.09;5023174;28;20218;-62
2023/12/04 04:20:57;;;;;;;13.33;9.33;;;-1.80;99.90;;;-141.84;82.01;18354.88;5028106;28;20222;-62
2023/12/04 04:23:26;;;;;;;13.23;9.00;;;-1.70;99.90;;;-141.84;81.79;18338.63;5012243;28;20261;-63
2023/12/04 04:25:55;;;;;;;15.43;9.77;;;-1.70;99.90;;;-141.84;81.87;18360.97;5024225;28;20312;-61
2023/12/04 04:28:23;;;;;;;13.43;9.67;;;-1.60;99.90;;;-141.84;83.10;18371.13;5022848;28;20277;-62
2023/12/04 04:30:51;;;;;;;11.20;8.23;;;-1.70;99.90;;;-141.84;80.43;18350.81;5018928;28;20246;-61
2023/12/04 04:33:19;;;;;;;12.10;8.73;;;-1.70;99.90;;;-141.84;81.04;18318.31;5018573;28;20234;-62
2023/12/04 04:35:49;;;;;;;13.83;9.20;;;-1.70;99.90;;;-141.84;81.52;18324.41;5025974;28;20304;-63
2023/12/04 04:38:17;;;;;;;12.37;8.47;;;-1.70;99.90;;;-141.84;82.04;18340.66;5018740;28;20278;-62
2023/12/04 04:40:46;;;;;;;12.93;8.50;;;-1.70;99.90;;;-141.84;82.63;18367.06;5018334;28;20187;-61
2023/12/04 04:43:15;;;;;;;12.23;8.10;;;-1.70;99.90;;;-141.84;83.16;18356.91;5020523;28;20585;-63
2023/12/04 04:45:44;;;;;;;13.37;9.33;;;-1.80;99.90;;;-141.84;83.50;18381.28;5016964;28;20724;-62
2023/12/04 04:48:13;;;;;;;14.23;9.03;;;-1.70;99.90;;;-141.84;83.01;18350.81;5021261;28;20248;-63
2023/12/04 04:50:41;;;;;;;12.87;8.80;;;-1.60;99.90;;;-141.84;81.47;18342.69;5025457;28;20439;-61
2023/12/04 04:53:09;;;;;;;13.27;8.70;;;-1.50;99.90;;;-141.84;81.11;18295.97;5020563;28;20312;-62
2023/12/04 04:55:38;;;;;;;12.60;8.30;;;-1.50;99.90;;;-141.84;81.73;18332.53;5022189;28;20290;-62
2023/12/04 04:58:18;;;;;;;12.47;8.53;;;-1.60;99.90;;;-141.84;80.66;18298.00;5012885;28;20293;-62
2023/12/04 05:00:47;;;;;;;11.53;7.93;;;-1.60;99.90;;;-141.84;81.44;18354.88;5024410;28;20246;-61
2023/12/04 05:03:16;;;;;;;11.80;8.33;;;-1.60;99.90;;;-141.84;82.33;18363.00;5011320;28;20229;-62
2023/12/04 05:05:44;;;;;;;12.17;8.60;;;-1.60;99.90;;;-141.84;82.15;18365.03;5029402;28;20239;-62
2023/12/04 05:08:12;;;;;;;10.43;7.90;;;-1.60;99.90;;;-141.84;82.86;18360.97;5018274;28;20281;-61
2023/12/04 05:10:41;;;;;;;11.77;8.30;;;-1.70;99.90;;;-141.84;82.49;18354.88;5014796;28;20201;-62
2023/12/04 05:13:09;;;;;;;12.80;8.40;;;-1.70;99.90;;;-141.84;82.60;18367.06;5031281;28;20672;-63
2023/12/04 05:15:39;;;;;;;12.13;8.50;;;-1.80;99.90;;;-141.84;82.88;18330.50;5026210;28;20233;-63
2023/12/04 05:18:07;;;;;;;11.13;8.10;;;-1.70;99.90;;;-141.84;83.61;18352.84;5010933;28;20236;-63
2023/12/04 05:20:35;;;;;;;12.30;8.13;;;-1.70;99.90;;;-141.84;84.00;18395.50;5018589;28;20305;-63
2023/12/04 05:23:03;;;;;;;10.70;7.93;;;-1.70;99.90;;;-141.84;84.42;18373.16;5026298;28;20292;-63
2023/12/04 05:25:31;;;;;;;11.00;7.70;;;-1.70;99.90;;;-141.84;82.31;18375.19;5016412;28;20289;-62
2023/12/04 05:28:11;;;;;;;10.97;7.53;;;-1.60;99.90;;;-141.84;82.49;18332.53;5025864;28;20286;-63
2023/12/04 05:30:41;;;;;;;11.23;7.20;;;-1.50;99.90;;;-141.84;82.82;18377.22;5013346;28;20320;-63
2023/12/04 05:33:09;;;;;;;10.57;7.27;;;-1.50;99.90;;;-141.84;82.58;18363.00;5010868;28;20238;-63
2023/12/04 05:35:37;;;;;;;9.40;6.87;;;-1.50;99.90;;;-141.84;81.96;18369.09;5028146;28;20229;-63
2023/12/04 05:38:07;;;;;;;12.10;7.60;;;-1.40;99.90;;;-141.84;82.52;18383.31;5016667;28;20793;-62
2023/12/04 05:40:35;;;;;;;10.20;7.30;;;-1.50;99.90;;;-141.84;83.92;18383.31;5018089;28;20199;-63
2023/12/04 05:43:04;;;;;;;10.73;7.77;;;-1.50;99.90;;;-141.84;84.07;18399.56;5030140;28;20303;-63
2023/12/04 05:45:32;;;;;;;10.03;7.00;;;-1.50;99.90;;;-141.84;83.73;18407.69;5000545;28;20227;-63
2023/12/04 05:48:01;;;;;;;11.63;7.33;;;-1.50;99.90;;;-141.84;83.89;18387.38;5016577;28;20732;-61
2023/12/04 05:50:30;;;;;;;9.03;6.40;;;-1.50;99.90;;;-141.84;84.09;18405.66;5015847;28;20230;-63
2023/12/04 05:52:58;;;;;;;9.80;6.57;;;-1.50;99.90;;;-141.84;83.41;18379.25;5025278;28;20732;-63
2023/12/04 05:55:27;;;;;;;9.17;6.27;;;-1.50;99.90;;;-141.84;82.12;18371.13;5023661;28;20252;-62
2023/12/04 05:57:55;;;;;;;9.33;6.40;;;-1.50;99.90;;;-141.84;82.90;18401.59;4999878;28;20220;-62
2023/12/04 06:00:23;;;;;;;9.07;6.03;;;-1.40;99.90;;;-141.84;80.41;18312.22;5009417;28;20318;-62
2023/12/04 06:02:56;;;;;;;8.90;6.43;;;-1.30;99.90;;;-141.84;79.44;18330.50;5005627;28;20222;-62
2023/12/04 06:05:26;;;;;;;9.50;6.50;;;-1.30;99.90;;;-141.84;79.20;18322.38;5006587;28;20732;-61
2023/12/04 06:07:54;;;;;;;9.13;6.23;;;-1.20;99.90;;;-141.84;80.04;18334.56;5009159;28;20226;-61
2023/12/04 06:10:22;;;;;;;7.40;5.80;;;-1.20;99.90;;;-141.84;80.44;18295.97;5010639;28;20402;-61
2023/12/04 06:12:50;;;;;;;7.17;5.63;;;-1.20;99.90;;;-141.84;79.99;18293.94;5000010;28;20317;-62
2023/12/04 06:15:19;;;;;;;10.37;6.87;;;-1.20;99.90;;;-141.84;79.32;18348.78;5009360;28;20705;-61
2023/12/04 06:17:47;;;;;;;7.63;5.70;;;-1.10;99.90;;;-141.84;79.51;18338.63;5010972;28;20232;-61
2023/12/04 06:20:15;;;;;;;8.50;5.43;;;-1.10;99.90;;;-141.84;80.48;18322.38;5010564;28;20283;-62
2023/12/04 06:22:46;;;;;;;8.07;5.40;;;-1.20;99.90;;;-141.84;81.29;18346.75;5018184;28;20210;-63
2023/12/04 06:25:16;;;;;;;7.80;5.87;;;-1.30;99.90;;;-141.84;79.77;18328.47;5010250;28;20232;-62
2023/12/04 06:27:45;;;;;;;8.00;5.90;;;-1.30;99.90;;;-141.84;80.84;18348.78;5008111;28;20597;-63
2023/12/04 06:30:15;;;;;;;8.93;6.20;;;-1.30;99.90;;;-141.84;81.08;18330.50;5016594;28;20232;-62
2023/12/04 06:32:44;;;;;;;8.60;5.63;;;-1.30;99.90;;;-141.84;81.40;18395.50;5011235;28;20318;-62
2023/12/04 06:35:14;;;;;;;8.40;5.67;;;-1.30;99.90;;;-141.84;82.65;18346.75;5022491;28;20565;-63
2023/12/04 06:37:51;;;;;;;6.90;5.33;;;-1.40;99.90;;;-141.84;82.46;18385.34;5019846;28;20181;-62
2023/12/04 06:40:20;;;;;;;8.30;6.10;;;-1.50;99.90;;;-141.84;83.57;18395.50;5025052;28;20592;-63
2023/12/04 06:42:49;;;;;;;8.23;6.07;;;-1.50;99.90;;;-141.84;84.12;18387.38;5007117;28;20222;-62
2023/12/04 06:45:19;;;;;;;8.37;5.83;;;-1.60;99.90;;;-141.84;84.39;18413.78;5009620;28;20577;-62
2023/12/04 06:47:52;;;;;;;7.07;5.33;;;-1.50;99.90;;;-141.84;84.36;18413.78;4997865;28;20317;-62
2023/12/04 06:50:20;;;;;;;9.13;5.93;;;-1.60;99.90;;;-141.84;84.37;18421.91;4990509;28;20238;-63
2023/12/04 06:52:49;;;;;;;6.77;5.60;;;-1.60;99.90;;;-141.84;84.28;18446.31;4990310;28;20726;-63
2023/12/04 06:55:18;;;;;;;7.17;5.83;;;-1.50;99.90;;;-141.84;83.25;18397.53;4990987;28;20202;-60
2023/12/04 06:57:46;;;;;;;8.40;6.10;;;-1.50;99.90;;;-141.84;82.60;18356.91;4989216;28;20223;-61
2023/12/04 07:00:16;;;;;;;6.97;5.33;;;-1.50;99.90;;;-141.84;83.18;18371.13;4990012;28;20242;-62
2023/12/04 07:02:51;;;;;;;6.40;5.03;;;-1.50;99.90;;;-141.84;82.29;18354.88;4990436;28;20771;-61
2023/12/04 07:05:20;;;;;;;6.77;4.60;;;-1.50;99.90;;;-141.84;82.13;18326.44;4990424;28;20254;-62
2023/12/04 07:07:50;;;;;;;7.70;5.10;;;-1.50;99.90;;;-141.84;82.67;18395.50;4990185;28;20671;-61
2023/12/04 07:10:18;;;;;;;7.00;4.67;;;-1.50;99.90;;;-141.84;83.34;18367.06;5002300;28;20743;-60
2023/12/04 07:12:47;;;;;;;8.73;5.83;;;-1.60;99.90;;;-141.84;83.52;18423.94;4992336;28;20286;-60
2023/12/04 07:15:15;;;;;;;8.43;5.50;;;-1.60;99.90;;;-141.84;83.67;18375.19;4995628;28;20710;-61
2023/12/04 07:17:43;;;;;;;7.90;5.53;;;-1.60;99.90;;;-141.84;83.68;18383.31;5010760;28;20797;-60
2023/12/04 07:20:12;;;;;;;8.17;5.83;;;-1.60;99.90;;;-141.84;84.57;18409.72;5013380;28;20230;-62
2023/12/04 07:22:41;;;;;;;7.70;5.70;;;-1.70;99.90;;;-141.84;84.66;18397.53;5009800;28;20301;-60
2023/12/04 07:25:10;;;;;;;7.90;5.77;;;-1.70;99.90;;;-141.84;85.50;18458.50;5002605;28;20750;-62
2023/12/04 07:27:39;;;;;;;7.73;5.60;;;-1.80;99.90;;;-141.84;86.74;18515.38;5000681;28;20233;-64
2023/12/04 07:30:08;;;;;;;9.43;6.40;;;-1.80;99.90;;;-141.84;87.81;18633.22;5012484;28;20288;-62
2023/12/04 07:32:36;;;;;;;8.13;6.17;;;-1.80;99.90;;;-141.84;86.08;18509.28;5005706;28;20322;-63
2023/12/04 07:35:07;;;;;;;9.67;6.57;;;-1.80;99.90;;;-141.84;85.40;18423.94;5008273;28;20219;-63
2023/12/04 07:37:35;;;;;;;10.23;7.80;;;-1.70;99.90;;;-141.84;86.69;18547.88;5009948;28;20195;-63
2023/12/04 07:40:05;;;;;;;10.77;7.00;;;-1.70;99.90;;;-141.84;85.29;18460.53;5012589;28;20653;-63
2023/12/04 07:42:35;;;;;;;12.60;8.43;;;-1.50;99.90;;;-141.84;84.90;18436.16;5010658;28;20230;-64
2023/12/04 07:45:04;;;;;;;14.07;8.90;;;-1.50;99.90;;;-141.84;83.38;18379.25;5018721;28;20231;-63
2023/12/04 07:47:32;;;;;;;10.73;7.57;;;-1.40;99.90;;;-141.84;83.06;18397.53;5008706;28;20218;-64
2023/12/04 07:50:00;;;;;;;12.57;8.40;;;-1.30;99.90;;;-141.84;81.83;18342.69;5007824;28;20649;-70
2023/12/04 07:52:29;;;;;;;10.07;7.17;;;-1.20;99.90;;;-141.84;82.51;18393.47;4998827;28;20656;-71
2023/12/04 07:54:57;;;;;;;10.30;6.70;;;-1.10;99.90;;;-141.84;82.09;18373.16;5012441;28;20292;-72
2023/12/04 07:57:26;;;;;;;11.13;7.77;;;-1.10;99.90;;;-141.84;82.07;18377.22;5012101;28;20252;-74
2023/12/04 07:59:55;;;;;;;11.80;7.67;;;-1.00;99.90;;;-141.84;81.47;18334.56;5014809;28;20213;-76
2023/12/04 08:02:23;;;;;;;13.53;9.30;;;-0.90;99.90;;;-141.84;81.04;18356.91;5014741;28;20281;-70
2023/12/04 08:04:51;;;;;;;12.17;8.53;;;-0.90;99.90;;;-141.84;80.67;18338.63;5013200;28;20711;-69
2023/12/04 08:07:20;;;;;;;11.10;7.57;;;-0.80;99.90;;;-141.84;77.85;18328.47;5013512;28;20225;-70
2023/12/04 08:09:48;;;;;;;10.23;7.63;;;-0.70;99.90;;;-141.84;77.93;18350.81;5013099;28;20729;-71
2023/12/04 08:12:17;;;;;;;9.97;7.00;;;-0.70;99.90;;;-141.84;78.01;18354.88;5014716;28;20237;-70
2023/12/04 08:14:46;;;;;;;9.70;7.07;;;-0.60;99.90;;;-141.84;78.59;18326.44;5014482;28;20236;-69
2023/12/04 08:17:16;;;;;;;11.20;7.60;;;-0.60;99.90;;;-141.84;76.91;18348.78;5014635;28;20233;-69
2023/12/04 08:19:45;;;;;;;9.80;6.60;;;-0.50;99.90;;;-141.84;77.19;18336.59;5012865;28;20238;-69
2023/12/04 08:22:16;;;;;;;10.17;7.47;;;-0.50;99.90;;;-141.84;77.64;18381.28;5013486;28;20222;-72
2023/12/04 08:24:44;;;;;;;10.10;7.20;;;-0.40;99.90;;;-141.84;76.73;18334.56;5013119;28;20301;-74
2023/12/04 08:27:12;;;;;;;11.43;7.40;;;-0.40;99.90;;;-141.84;75.84;18340.66;5014306;28;20478;-74
2023/12/04 08:29:41;;;;;;;10.27;6.97;;;-0.30;99.90;;;-141.84;76.81;18375.19;5009408;28;20319;-72
2023/12/04 08:32:09;;;;;;;11.23;7.83;;;-0.30;99.90;;;-141.84;77.06;18383.31;5012204;28;20278;-71
2023/12/04 08:34:39;;;;;;;11.23;7.83;;;-0.30;99.90;;;-141.84;74.94;18342.69;5012031;28;20236;-68
2023/12/04 08:37:07;;;;;;;12.13;7.30;;;-0.20;99.90;;;-141.84;75.29;18365.03;5011629;28;20723;-73
2023/12/04 08:39:35;;;;;;;12.13;7.67;;;-0.20;99.90;;;-141.84;76.17;18381.28;5012639;28;20234;-75
2023/12/04 08:42:04;;;;;;;10.07;8.00;;;-0.20;99.90;;;-141.84;76.06;18348.78;5012804;28;20575;-76
2023/12/04 08:44:40;;;;;;;11.47;8.40;;;-0.20;99.90;;;-141.84;74.96;18360.97;5013231;28;20196;-68
2023/12/04 08:47:08;;;;;;;10.10;7.50;;;-0.30;99.90;;;-141.84;75.94;18363.00;5011664;28;20691;-69
2023/12/04 08:49:40;;;;;;;11.50;8.20;;;-0.20;99.90;;;-141.84;76.87;18365.03;5011335;28;20230;-69
2023/12/04 08:52:16;;;;;;;11.17;8.17;;;-0.20;99.90;;;-141.84;75.58;18373.16;5011780;28;20284;-70
2023/12/04 08:54:44;;;;;;;12.33;7.93;;;-0.20;99.90;;;-141.84;75.87;18358.94;5011475;28;20229;-77
2023/12/04 08:57:12;;;;;;;11.30;7.67;;;-0.10;99.90;;;-141.84;75.94;18385.34;5011097;28;20222;-77
2023/12/04 08:59:40;;;;;;;12.00;7.83;;;-0.10;99.90;;;-141.84;75.76;18358.94;5008972;28;20645;-79
2023/12/04 09:02:10;;;;;;;12.33;8.27;;;0.00;99.90;;;-141.84;74.83;18395.50;5012178;28;20274;-70
2023/12/04 09:04:41;;;;;;;12.97;8.90;;;0.10;99.90;;;-141.84;74.54;18393.47;5011091;28;20236;-69
2023/12/04 09:07:10;;;;;;;14.80;9.70;;;0.20;99.90;;;-141.84;74.24;18369.09;5011262;28;20245;-71
2023/12/04 09:09:59;;;;;;;12.67;8.97;;;0.20;99.90;;;-141.84;73.66;18354.88;5010796;28;20614;-72
2023/12/04 09:12:30;;;;;;;12.13;8.83;;;0.30;99.90;;;-141.84;73.06;18371.13;5011283;28;20226;-75
2023/12/04 09:14:58;;;;;;;12.50;8.50;;;0.40;99.90;;;-141.84;71.34;18407.69;5010793;28;20282;-68
2023/12/04 09:17:27;;;;;;;10.20;7.67;;;0.40;99.90;;;-141.84;71.24;18391.44;5011601;28;20227;-69
2023/12/04 09:20:06;;;;;;;10.17;7.63;;;0.40;99.90;;;-141.84;69.96;18413.78;5010780;28;20233;-69
2023/12/04 09:22:37;;;;;;;9.43;6.37;;;0.50;99.90;;;-141.84;69.80;18381.28;5011085;28;20293;-74
2023/12/04 09:25:19;;;;;;;9.63;6.43;;;0.50;99.90;;;-141.84;68.54;18405.66;5010591;28;20325;-72
2023/12/04 09:27:47;;;;;;;10.33;6.67;;;0.50;99.90;;;-141.84;69.78;18407.69;5010494;28;20259;-69
2023/12/04 09:30:16;;;;;;;8.87;6.50;;;0.40;99.90;;;-141.84;69.73;18434.13;4998882;28;20258;-72
2023/12/04 09:32:44;;;;;;;8.07;5.90;;;0.50;99.90;;;-141.84;69.01;18413.78;5010496;28;20243;-75
2023/12/04 09:35:15;;;;;;;8.13;5.87;;;0.70;99.90;;;-141.84;69.59;18450.38;5011082;28;20261;-75
2023/12/04 09:37:43;;;;;;;7.37;5.93;;;0.70;99.90;;;-141.84;68.41;18419.88;5011173;28;20226;-78
2023/12/04 09:40:12;;;;;;;7.17;5.17;;;0.80;99.90;;;-141.84;66.33;18468.66;5011006;28;20310;-78
2023/12/04 09:42:41;;;;;;;7.03;5.30;;;0.80;99.90;;;-141.84;65.51;18434.13;5011549;28;20222;-70
2023/12/04 09:45:10;;;;;;;7.93;5.90;;;0.80;99.90;;;-141.84;67.10;18413.78;5010068;28;20233;-70
2023/12/04 09:47:39;;;;;;;7.57;5.47;;;0.80;99.90;;;-141.84;68.35;18428.03;5010761;28;20199;-70
2023/12/04 09:50:09;;;;;;;8.33;5.80;;;0.80;99.90;;;-141.84;67.22;18387.38;5010058;28;20737;-67
2023/12/04 09:52:40;;;;;;;8.40;5.97;;;0.90;99.90;;;-141.84;67.57;18430.06;5009774;28;20253;-67
2023/12/04 09:55:08;;;;;;;9.03;6.50;;;1.00;99.90;;;-141.84;65.52;18482.88;5010288;28;20238;-69
2023/12/04 09:57:37;;;;;;;9.23;6.73;;;1.10;99.90;;;-141.84;63.75;18438.19;5009750;28;20261;-74
2023/12/04 10:00:07;;;;;;;8.27;6.23;;;1.20;99.90;;;-141.84;64.89;18452.41;5010202;28;20231;-76
2023/12/04 10:02:36;;;;;;;8.43;6.00;;;1.20;99.90;;;-141.84;65.86;18434.13;5011036;28;20218;-76
2023/12/04 10:05:06;;;;;;;10.10;6.63;;;1.30;99.90;;;-141.84;64.51;18436.16;5009865;28;20437;-71
2023/12/04 10:07:34;;;;;;;9.83;6.00;;;1.40;99.90;;;-141.84;62.42;18462.56;5010083;28;20237;-73